ADDS METAR Data

Data at: 0743 UTC 24 Oct 2017

METAR for:KBID (Block Island Arpt, RI, US)
Text:KBID 240730Z AUTO 15014KT 10SM BKN024 BKN032 BKN049 18/18 A3005 RMK AO2 RAB08E19 P0001
Temperature: 18.0°C ( 64°F)
Dewpoint: 18.0°C ( 64°F) [RH = 100%]
Pressure (altimeter):30.05 inches Hg (1017.7 mb)
Winds:from the SSE (150 degrees) at 16 MPH (14 knots; 7.2 m/s)
Visibility:10 or more sm (16+ km)
Ceiling:2400 feet AGL
Clouds: broken clouds at 2400 feet AGL, broken clouds at 3200 feet AGL, broken clouds at 4900 feet AGL
QC Flag:automated observation with no human augmentation